Archival Weather

Heathrow

London, United Kingdom (EGLL)

Report from: Sunday, March 19, 2023 1:20 PM GMT
Current time: Wednesday, April 24, 2024 9:05 PM BST

Current weather – Weather history – Daily summaries
Weather forecast

Temperature10.0°C (50.0°F)
Wind chill8.2°C (46.7°F)
Dew point4.0°C (39.2°F)
Winds 7 kts (3.6 m/s, 8.1 mph) Vrb
Winds variableWinds variable from West-Southwest (250°) to Northwest (320°)
Visibility6.2 mi. (10 km)
Clouds Scattered clouds 3,100 ft. (945 m)
Ceiling: Overcast 3,700 ft. (1,128 m)
Altimeter30.03 in.Hg (1017 mB)
Relative humidity66 %
Density altitude-605 ft. (-184 m)
Remarks Fully automated report
No significant changes expected in the next two hours
Flight conditions Visual Meteorological Conditions
Raw dataEGLL 191320Z AUTO 28007KT 250V320 9999 SCT031 OVC037 10/04 Q1017 NOSIG
An error has occurred. This application may no longer respond until reloaded. Reload 🗙